sensor_id;sensor_type;location;lat;lon;timestamp;temperature;humidity
75994;DHT22;64680;53.800;9.988;2022-11-23T00:01:16;0.70;85.50
75994;DHT22;64680;53.800;9.988;2022-11-23T00:03:43;0.80;85.40
75994;DHT22;64680;53.800;9.988;2022-11-23T00:06:09;0.80;85.30
75994;DHT22;64680;53.800;9.988;2022-11-23T00:08:35;0.80;85.40
75994;DHT22;64680;53.800;9.988;2022-11-23T00:11:01;0.80;85.20
75994;DHT22;64680;53.800;9.988;2022-11-23T00:13:26;0.80;85.30
75994;DHT22;64680;53.800;9.988;2022-11-23T00:15:52;0.90;85.40
75994;DHT22;64680;53.800;9.988;2022-11-23T00:18:17;0.90;85.40
75994;DHT22;64680;53.800;9.988;2022-11-23T00:20:43;0.90;85.30
75994;DHT22;64680;53.800;9.988;2022-11-23T00:23:09;0.90;85.30
75994;DHT22;64680;53.800;9.988;2022-11-23T00:25:35;0.90;85.40
75994;DHT22;64680;53.800;9.988;2022-11-23T00:28:01;1.00;85.30
75994;DHT22;64680;53.800;9.988;2022-11-23T00:30:26;0.90;85.10
75994;DHT22;64680;53.800;9.988;2022-11-23T00:32:54;1.00;85.10
75994;DHT22;64680;53.800;9.988;2022-11-23T00:35:20;1.00;85.20
75994;DHT22;64680;53.800;9.988;2022-11-23T00:37:46;1.00;85.20
75994;DHT22;64680;53.800;9.988;2022-11-23T00:40:11;1.00;85.20
75994;DHT22;64680;53.800;9.988;2022-11-23T00:42:37;1.00;85.20
75994;DHT22;64680;53.800;9.988;2022-11-23T00:45:03;1.00;85.30
75994;DHT22;64680;53.800;9.988;2022-11-23T00:47:28;1.00;85.20
75994;DHT22;64680;53.800;9.988;2022-11-23T00:49:54;1.00;85.30
75994;DHT22;64680;53.800;9.988;2022-11-23T00:52:19;1.10;85.30
75994;DHT22;64680;53.800;9.988;2022-11-23T00:54:45;1.00;85.10
75994;DHT22;64680;53.800;9.988;2022-11-23T00:57:11;1.10;85.40
75994;DHT22;64680;53.800;9.988;2022-11-23T00:59:36;1.10;85.30
75994;DHT22;64680;53.800;9.988;2022-11-23T01:02:02;1.10;85.10
75994;DHT22;64680;53.800;9.988;2022-11-23T01:04:27;1.10;85.00
75994;DHT22;64680;53.800;9.988;2022-11-23T01:06:55;1.10;85.00
75994;DHT22;64680;53.800;9.988;2022-11-23T01:09:21;1.10;85.10
75994;DHT22;64680;53.800;9.988;2022-11-23T01:11:54;1.20;85.10
75994;DHT22;64680;53.800;9.988;2022-11-23T01:14:21;1.10;85.00
75994;DHT22;64680;53.800;9.988;2022-11-23T01:16:47;1.20;85.10
75994;DHT22;64680;53.800;9.988;2022-11-23T01:19:16;1.20;85.70
75994;DHT22;64680;53.800;9.988;2022-11-23T01:21:42;1.30;85.10
75994;DHT22;64680;53.800;9.988;2022-11-23T01:24:13;1.30;84.90
75994;DHT22;64680;53.800;9.988;2022-11-23T01:26:39;1.30;84.90
75994;DHT22;64680;53.800;9.988;2022-11-23T01:29:05;1.30;84.80
75994;DHT22;64680;53.800;9.988;2022-11-23T01:31:31;1.40;84.90
75994;DHT22;64680;53.800;9.988;2022-11-23T01:33:58;1.40;84.70
75994;DHT22;64680;53.800;9.988;2022-11-23T01:36:27;1.40;84.80
75994;DHT22;64680;53.800;9.988;2022-11-23T01:38:53;1.40;84.50
75994;DHT22;64680;53.800;9.988;2022-11-23T01:41:25;1.40;84.50
75994;DHT22;64680;53.800;9.988;2022-11-23T01:43:51;1.40;84.50
75994;DHT22;64680;53.800;9.988;2022-11-23T01:46:17;1.50;84.70
75994;DHT22;64680;53.800;9.988;2022-11-23T01:49:01;1.50;84.80
75994;DHT22;64680;53.800;9.988;2022-11-23T01:51:32;1.50;84.40
75994;DHT22;64680;53.800;9.988;2022-11-23T01:54:27;1.50;84.40
75994;DHT22;64680;53.800;9.988;2022-11-23T01:57:00;1.50;84.60
75994;DHT22;64680;53.800;9.988;2022-11-23T01:59:29;1.60;84.60
75994;DHT22;64680;53.800;9.988;2022-11-23T02:01:54;1.60;84.60
75994;DHT22;64680;53.800;9.988;2022-11-23T02:04:28;1.60;84.60
75994;DHT22;64680;53.800;9.988;2022-11-23T02:06:55;1.70;85.30
75994;DHT22;64680;53.800;9.988;2022-11-23T02:09:21;1.70;84.20
75994;DHT22;64680;53.800;9.988;2022-11-23T02:11:47;1.70;84.30
75994;DHT22;64680;53.800;9.988;2022-11-23T02:14:13;1.70;84.20
75994;DHT22;64680;53.800;9.988;2022-11-23T02:16:39;1.70;84.00
75994;DHT22;64680;53.800;9.988;2022-11-23T02:19:09;1.70;84.00
75994;DHT22;64680;53.800;9.988;2022-11-23T02:21:37;1.70;84.10
75994;DHT22;64680;53.800;9.988;2022-11-23T02:24:16;1.70;84.30
75994;DHT22;64680;53.800;9.988;2022-11-23T02:26:45;1.60;84.20
75994;DHT22;64680;53.800;9.988;2022-11-23T02:29:22;1.60;84.20
75994;DHT22;64680;53.800;9.988;2022-11-23T02:31:48;1.70;84.50
75994;DHT22;64680;53.800;9.988;2022-11-23T02:34:15;1.70;84.40
75994;DHT22;64680;53.800;9.988;2022-11-23T02:36:47;1.70;84.50
75994;DHT22;64680;53.800;9.988;2022-11-23T02:41:53;1.70;84.50
75994;DHT22;64680;53.800;9.988;2022-11-23T02:47:06;1.80;84.50
75994;DHT22;64680;53.800;9.988;2022-11-23T02:49:31;1.80;84.40
75994;DHT22;64680;53.800;9.988;2022-11-23T02:51:57;1.80;84.30
75994;DHT22;64680;53.800;9.988;2022-11-23T02:54:22;1.90;84.10
75994;DHT22;64680;53.800;9.988;2022-11-23T02:56:48;1.90;84.10
75994;DHT22;64680;53.800;9.988;2022-11-23T02:59:14;1.90;84.10
75994;DHT22;64680;53.800;9.988;2022-11-23T03:01:39;1.90;84.20
75994;DHT22;64680;53.800;9.988;2022-11-23T03:04:06;1.90;84.20
75994;DHT22;64680;53.800;9.988;2022-11-23T03:06:31;2.00;84.10
75994;DHT22;64680;53.800;9.988;2022-11-23T03:08:57;2.00;84.00
75994;DHT22;64680;53.800;9.988;2022-11-23T03:11:22;2.00;84.10
75994;DHT22;64680;53.800;9.988;2022-11-23T03:13:48;2.10;84.10
75994;DHT22;64680;53.800;9.988;2022-11-23T03:16:14;2.10;84.30
75994;DHT22;64680;53.800;9.988;2022-11-23T03:18:41;2.10;84.30
75994;DHT22;64680;53.800;9.988;2022-11-23T03:21:07;2.10;84.30
75994;DHT22;64680;53.800;9.988;2022-11-23T03:23:33;2.10;84.40
75994;DHT22;64680;53.800;9.988;2022-11-23T03:25:59;2.10;84.40
75994;DHT22;64680;53.800;9.988;2022-11-23T03:28:25;2.10;84.60
75994;DHT22;64680;53.800;9.988;2022-11-23T03:30:51;2.10;84.80
75994;DHT22;64680;53.800;9.988;2022-11-23T03:33:16;2.10;84.90
75994;DHT22;64680;53.800;9.988;2022-11-23T03:35:42;2.10;85.00
75994;DHT22;64680;53.800;9.988;2022-11-23T03:38:08;2.10;84.90
75994;DHT22;64680;53.800;9.988;2022-11-23T03:40:34;2.20;84.90
75994;DHT22;64680;53.800;9.988;2022-11-23T03:42:59;2.20;85.00
75994;DHT22;64680;53.800;9.988;2022-11-23T03:45:25;2.20;84.90
75994;DHT22;64680;53.800;9.988;2022-11-23T03:47:51;2.20;84.90
75994;DHT22;64680;53.800;9.988;2022-11-23T03:50:16;2.20;85.10
75994;DHT22;64680;53.800;9.988;2022-11-23T03:52:42;2.20;85.10
75994;DHT22;64680;53.800;9.988;2022-11-23T03:55:07;2.20;85.10
75994;DHT22;64680;53.800;9.988;2022-11-23T03:57:33;2.20;85.20
75994;DHT22;64680;53.800;9.988;2022-11-23T03:59:59;2.20;85.50
75994;DHT22;64680;53.800;9.988;2022-11-23T04:02:24;2.10;85.50
75994;DHT22;64680;53.800;9.988;2022-11-23T04:04:50;2.20;85.40
75994;DHT22;64680;53.800;9.988;2022-11-23T04:07:15;2.20;85.50
75994;DHT22;64680;53.800;9.988;2022-11-23T04:09:41;2.20;85.50
75994;DHT22;64680;53.800;9.988;2022-11-23T04:12:08;2.20;85.50
75994;DHT22;64680;53.800;9.988;2022-11-23T04:14:34;2.20;85.60
75994;DHT22;64680;53.800;9.988;2022-11-23T04:16:59;2.20;85.60
75994;DHT22;64680;53.800;9.988;2022-11-23T04:19:26;2.20;85.60
75994;DHT22;64680;53.800;9.988;2022-11-23T04:21:52;2.20;85.60
75994;DHT22;64680;53.800;9.988;2022-11-23T04:24:18;2.20;85.60
75994;DHT22;64680;53.800;9.988;2022-11-23T04:26:43;2.20;85.60
75994;DHT22;64680;53.800;9.988;2022-11-23T04:29:09;2.30;85.70
75994;DHT22;64680;53.800;9.988;2022-11-23T04:31:34;2.30;85.60
75994;DHT22;64680;53.800;9.988;2022-11-23T04:34:00;2.30;85.60
75994;DHT22;64680;53.800;9.988;2022-11-23T04:36:26;2.30;85.60
75994;DHT22;64680;53.800;9.988;2022-11-23T04:38:52;2.30;85.60
75994;DHT22;64680;53.800;9.988;2022-11-23T04:41:17;2.30;85.80
75994;DHT22;64680;53.800;9.988;2022-11-23T04:43:43;2.40;85.70
75994;DHT22;64680;53.800;9.988;2022-11-23T04:46:10;2.40;85.60
75994;DHT22;64680;53.800;9.988;2022-11-23T04:48:36;2.40;85.40
75994;DHT22;64680;53.800;9.988;2022-11-23T04:51:01;2.40;85.40
75994;DHT22;64680;53.800;9.988;2022-11-23T04:53:27;2.40;85.30
75994;DHT22;64680;53.800;9.988;2022-11-23T04:55:53;2.40;85.30
75994;DHT22;64680;53.800;9.988;2022-11-23T04:58:18;2.40;85.40
75994;DHT22;64680;53.800;9.988;2022-11-23T05:00:44;2.40;85.30
75994;DHT22;64680;53.800;9.988;2022-11-23T05:03:09;2.40;85.30
75994;DHT22;64680;53.800;9.988;2022-11-23T05:05:39;2.40;85.40
75994;DHT22;64680;53.800;9.988;2022-11-23T05:08:05;2.30;85.40
75994;DHT22;64680;53.800;9.988;2022-11-23T05:10:31;2.40;85.40
75994;DHT22;64680;53.800;9.988;2022-11-23T05:12:56;2.40;85.60
75994;DHT22;64680;53.800;9.988;2022-11-23T05:15:22;2.40;85.50
75994;DHT22;64680;53.800;9.988;2022-11-23T05:17:47;2.40;85.40
75994;DHT22;64680;53.800;9.988;2022-11-23T05:20:13;2.50;85.40
75994;DHT22;64680;53.800;9.988;2022-11-23T05:22:39;2.50;85.30
75994;DHT22;64680;53.800;9.988;2022-11-23T05:25:05;2.40;85.30
75994;DHT22;64680;53.800;9.988;2022-11-23T05:27:31;2.40;85.30
75994;DHT22;64680;53.800;9.988;2022-11-23T05:29:57;2.50;85.30
75994;DHT22;64680;53.800;9.988;2022-11-23T05:32:23;2.50;85.50
75994;DHT22;64680;53.800;9.988;2022-11-23T05:34:48;2.50;85.60
75994;DHT22;64680;53.800;9.988;2022-11-23T05:37:14;2.50;85.60
75994;DHT22;64680;53.800;9.988;2022-11-23T05:39:40;2.50;85.70
75994;DHT22;64680;53.800;9.988;2022-11-23T05:42:05;2.50;85.70
75994;DHT22;64680;53.800;9.988;2022-11-23T05:44:31;2.60;85.70
75994;DHT22;64680;53.800;9.988;2022-11-23T05:46:57;2.60;85.70
75994;DHT22;64680;53.800;9.988;2022-11-23T05:49:22;2.50;85.70
75994;DHT22;64680;53.800;9.988;2022-11-23T05:51:48;2.50;85.70
75994;DHT22;64680;53.800;9.988;2022-11-23T05:54:13;2.60;85.80
75994;DHT22;64680;53.800;9.988;2022-11-23T05:56:39;2.60;85.70
75994;DHT22;64680;53.800;9.988;2022-11-23T05:59:04;2.60;85.80
75994;DHT22;64680;53.800;9.988;2022-11-23T06:01:30;2.60;85.90
75994;DHT22;64680;53.800;9.988;2022-11-23T06:03:57;2.60;86.80
75994;DHT22;64680;53.800;9.988;2022-11-23T06:06:23;2.60;86.10
75994;DHT22;64680;53.800;9.988;2022-11-23T06:08:48;2.60;86.20
75994;DHT22;64680;53.800;9.988;2022-11-23T06:11:14;2.60;86.20
75994;DHT22;64680;53.800;9.988;2022-11-23T06:13:39;2.60;86.20
75994;DHT22;64680;53.800;9.988;2022-11-23T06:16:05;2.60;86.30
75994;DHT22;64680;53.800;9.988;2022-11-23T06:18:31;2.60;86.50
75994;DHT22;64680;53.800;9.988;2022-11-23T06:21:00;2.60;86.50
75994;DHT22;64680;53.800;9.988;2022-11-23T06:23:26;2.50;86.70
75994;DHT22;64680;53.800;9.988;2022-11-23T06:25:52;2.50;86.70
75994;DHT22;64680;53.800;9.988;2022-11-23T06:28:17;2.60;86.70
75994;DHT22;64680;53.800;9.988;2022-11-23T06:30:43;2.60;86.70
75994;DHT22;64680;53.800;9.988;2022-11-23T06:33:09;2.60;86.60
75994;DHT22;64680;53.800;9.988;2022-11-23T06:35:34;2.60;86.70
75994;DHT22;64680;53.800;9.988;2022-11-23T06:38:00;2.60;86.80
75994;DHT22;64680;53.800;9.988;2022-11-23T06:40:26;2.60;86.90
75994;DHT22;64680;53.800;9.988;2022-11-23T06:42:57;2.70;87.10
75994;DHT22;64680;53.800;9.988;2022-11-23T06:45:23;2.70;87.20
75994;DHT22;64680;53.800;9.988;2022-11-23T06:47:49;2.70;87.10
75994;DHT22;64680;53.800;9.988;2022-11-23T06:50:14;2.70;87.10
75994;DHT22;64680;53.800;9.988;2022-11-23T06:52:40;2.70;87.00
75994;DHT22;64680;53.800;9.988;2022-11-23T06:55:06;2.60;86.90
75994;DHT22;64680;53.800;9.988;2022-11-23T06:57:31;2.60;86.90
75994;DHT22;64680;53.800;9.988;2022-11-23T06:59:57;2.60;86.90
75994;DHT22;64680;53.800;9.988;2022-11-23T07:02:23;2.60;86.90
75994;DHT22;64680;53.800;9.988;2022-11-23T07:04:50;2.60;86.90
75994;DHT22;64680;53.800;9.988;2022-11-23T07:07:17;2.70;86.90
75994;DHT22;64680;53.800;9.988;2022-11-23T07:09:42;2.70;87.00
75994;DHT22;64680;53.800;9.988;2022-11-23T07:12:08;2.70;87.10
75994;DHT22;64680;53.800;9.988;2022-11-23T07:14:33;2.70;87.00
75994;DHT22;64680;53.800;9.988;2022-11-23T07:16:59;2.70;87.00
75994;DHT22;64680;53.800;9.988;2022-11-23T07:19:25;2.80;87.10
75994;DHT22;64680;53.800;9.988;2022-11-23T07:21:50;2.70;87.10
75994;DHT22;64680;53.800;9.988;2022-11-23T07:24:16;2.80;87.10
75994;DHT22;64680;53.800;9.988;2022-11-23T07:26:41;2.80;87.10
75994;DHT22;64680;53.800;9.988;2022-11-23T07:29:07;2.80;87.10
75994;DHT22;64680;53.800;9.988;2022-11-23T07:31:32;2.80;87.00
75994;DHT22;64680;53.800;9.988;2022-11-23T07:33:58;2.80;87.00
75994;DHT22;64680;53.800;9.988;2022-11-23T07:36:23;2.90;87.10
75994;DHT22;64680;53.800;9.988;2022-11-23T07:38:49;2.90;87.10
75994;DHT22;64680;53.800;9.988;2022-11-23T07:41:15;2.90;87.10
75994;DHT22;64680;53.800;9.988;2022-11-23T07:43:40;2.90;87.10
75994;DHT22;64680;53.800;9.988;2022-11-23T07:46:06;3.00;87.10
75994;DHT22;64680;53.800;9.988;2022-11-23T07:48:31;3.00;87.10
75994;DHT22;64680;53.800;9.988;2022-11-23T07:50:57;3.00;87.00
75994;DHT22;64680;53.800;9.988;2022-11-23T07:53:23;3.10;87.30
75994;DHT22;64680;53.800;9.988;2022-11-23T07:55:48;3.10;87.20
75994;DHT22;64680;53.800;9.988;2022-11-23T07:58:14;3.10;87.20
75994;DHT22;64680;53.800;9.988;2022-11-23T08:00:40;3.20;87.10
75994;DHT22;64680;53.800;9.988;2022-11-23T08:03:05;3.20;86.90
75994;DHT22;64680;53.800;9.988;2022-11-23T08:05:31;3.30;86.90
75994;DHT22;64680;53.800;9.988;2022-11-23T08:08:01;3.30;87.00
75994;DHT22;64680;53.800;9.988;2022-11-23T08:10:28;3.30;87.00
75994;DHT22;64680;53.800;9.988;2022-11-23T08:12:59;3.30;86.90
75994;DHT22;64680;53.800;9.988;2022-11-23T08:15:26;3.30;87.00
75994;DHT22;64680;53.800;9.988;2022-11-23T08:17:56;3.40;87.00
75994;DHT22;64680;53.800;9.988;2022-11-23T08:20:23;3.40;86.90
75994;DHT22;64680;53.800;9.988;2022-11-23T08:22:48;3.40;86.90
75994;DHT22;64680;53.800;9.988;2022-11-23T08:25:14;3.50;86.90
75994;DHT22;64680;53.800;9.988;2022-11-23T08:27:40;3.60;86.80
75994;DHT22;64680;53.800;9.988;2022-11-23T08:30:06;3.60;86.70
75994;DHT22;64680;53.800;9.988;2022-11-23T08:32:31;3.60;86.50
75994;DHT22;64680;53.800;9.988;2022-11-23T08:34:57;3.70;86.70
75994;DHT22;64680;53.800;9.988;2022-11-23T08:37:23;3.70;86.60
75994;DHT22;64680;53.800;9.988;2022-11-23T08:39:48;3.70;86.40
75994;DHT22;64680;53.800;9.988;2022-11-23T08:42:14;3.80;86.40
75994;DHT22;64680;53.800;9.988;2022-11-23T08:44:39;3.80;86.30
75994;DHT22;64680;53.800;9.988;2022-11-23T08:47:05;3.90;86.20
75994;DHT22;64680;53.800;9.988;2022-11-23T08:49:30;4.00;86.30
75994;DHT22;64680;53.800;9.988;2022-11-23T08:51:56;4.00;86.30
75994;DHT22;64680;53.800;9.988;2022-11-23T08:54:21;4.20;86.40
75994;DHT22;64680;53.800;9.988;2022-11-23T08:56:49;4.30;86.50
75994;DHT22;64680;53.800;9.988;2022-11-23T08:59:15;4.40;86.00
75994;DHT22;64680;53.800;9.988;2022-11-23T09:01:44;4.50;85.00
75994;DHT22;64680;53.800;9.988;2022-11-23T09:04:10;4.50;84.70
75994;DHT22;64680;53.800;9.988;2022-11-23T09:06:36;4.40;84.20
75994;DHT22;64680;53.800;9.988;2022-11-23T09:09:02;4.40;84.40
75994;DHT22;64680;53.800;9.988;2022-11-23T09:11:27;4.40;85.10
75994;DHT22;64680;53.800;9.988;2022-11-23T09:13:53;4.40;84.80
75994;DHT22;64680;53.800;9.988;2022-11-23T09:16:19;4.50;84.90
75994;DHT22;64680;53.800;9.988;2022-11-23T09:18:45;4.50;84.70
75994;DHT22;64680;53.800;9.988;2022-11-23T09:21:10;4.50;85.10
75994;DHT22;64680;53.800;9.988;2022-11-23T09:23:36;4.60;85.30
75994;DHT22;64680;53.800;9.988;2022-11-23T09:26:02;4.70;85.10
75994;DHT22;64680;53.800;9.988;2022-11-23T09:28:29;4.80;84.60
75994;DHT22;64680;53.800;9.988;2022-11-23T09:30:55;4.80;84.50
75994;DHT22;64680;53.800;9.988;2022-11-23T09:33:22;4.80;84.20
75994;DHT22;64680;53.800;9.988;2022-11-23T09:35:56;4.90;84.40
75994;DHT22;64680;53.800;9.988;2022-11-23T09:38:22;5.00;84.10
75994;DHT22;64680;53.800;9.988;2022-11-23T09:40:51;5.10;83.70
75994;DHT22;64680;53.800;9.988;2022-11-23T09:43:32;5.10;83.10
75994;DHT22;64680;53.800;9.988;2022-11-23T09:46:11;5.20;83.30
75994;DHT22;64680;53.800;9.988;2022-11-23T09:48:54;5.20;83.50
75994;DHT22;64680;53.800;9.988;2022-11-23T09:51:27;5.30;82.90
75994;DHT22;64680;53.800;9.988;2022-11-23T09:53:57;5.50;82.10
75994;DHT22;64680;53.800;9.988;2022-11-23T09:56:42;5.60;82.40
75994;DHT22;64680;53.800;9.988;2022-11-23T10:01:50;5.70;81.90
75994;DHT22;64680;53.800;9.988;2022-11-23T10:04:18;5.80;80.80
75994;DHT22;64680;53.800;9.988;2022-11-23T10:06:53;5.80;81.70
75994;DHT22;64680;53.800;9.988;2022-11-23T10:09:41;5.90;81.00
75994;DHT22;64680;53.800;9.988;2022-11-23T10:15:23;5.90;81.10
75994;DHT22;64680;53.800;9.988;2022-11-23T10:23:06;6.20;80.30
75994;DHT22;64680;53.800;9.988;2022-11-23T10:25:46;6.20;80.20
75994;DHT22;64680;53.800;9.988;2022-11-23T10:28:16;6.20;79.20
75994;DHT22;64680;53.800;9.988;2022-11-23T10:30:52;6.30;79.20
75994;DHT22;64680;53.800;9.988;2022-11-23T10:35:48;6.70;80.50
75994;DHT22;64680;53.800;9.988;2022-11-23T10:38:17;7.00;76.80
75994;DHT22;64680;53.800;9.988;2022-11-23T10:40:57;7.10;75.80
75994;DHT22;64680;53.800;9.988;2022-11-23T10:43:27;7.10;75.10
75994;DHT22;64680;53.800;9.988;2022-11-23T10:46:24;7.30;75.10
75994;DHT22;64680;53.800;9.988;2022-11-23T10:48:51;7.20;76.10
75994;DHT22;64680;53.800;9.988;2022-11-23T10:51:31;7.00;74.60
75994;DHT22;64680;53.800;9.988;2022-11-23T10:54:00;6.80;75.70
75994;DHT22;64680;53.800;9.988;2022-11-23T10:56:26;6.70;77.20
75994;DHT22;64680;53.800;9.988;2022-11-23T10:58:52;6.70;76.60
75994;DHT22;64680;53.800;9.988;2022-11-23T11:01:27;6.60;77.30
75994;DHT22;64680;53.800;9.988;2022-11-23T11:03:56;6.60;77.60
75994;DHT22;64680;53.800;9.988;2022-11-23T11:06:29;6.60;77.40
75994;DHT22;64680;53.800;9.988;2022-11-23T11:09:00;6.60;77.90
75994;DHT22;64680;53.800;9.988;2022-11-23T11:11:28;6.70;78.20
75994;DHT22;64680;53.800;9.988;2022-11-23T11:14:24;6.70;77.70
75994;DHT22;64680;53.800;9.988;2022-11-23T11:16:51;6.80;77.50
75994;DHT22;64680;53.800;9.988;2022-11-23T11:19:34;6.80;76.90
75994;DHT22;64680;53.800;9.988;2022-11-23T11:22:02;6.80;75.90
75994;DHT22;64680;53.800;9.988;2022-11-23T11:24:43;6.80;76.60
75994;DHT22;64680;53.800;9.988;2022-11-23T11:27:13;6.70;77.80
75994;DHT22;64680;53.800;9.988;2022-11-23T11:32:20;6.70;78.10
75994;DHT22;64680;53.800;9.988;2022-11-23T11:34:54;6.70;78.50
75994;DHT22;64680;53.800;9.988;2022-11-23T11:37:42;6.70;78.80
75994;DHT22;64680;53.800;9.988;2022-11-23T11:40:31;6.60;78.50
75994;DHT22;64680;53.800;9.988;2022-11-23T11:45:32;6.70;78.40
75994;DHT22;64680;53.800;9.988;2022-11-23T11:48:08;6.70;79.00
75994;DHT22;64680;53.800;9.988;2022-11-23T11:51:07;6.70;78.60
75994;DHT22;64680;53.800;9.988;2022-11-23T11:53:47;6.70;79.00
75994;DHT22;64680;53.800;9.988;2022-11-23T11:56:24;6.70;78.80
75994;DHT22;64680;53.800;9.988;2022-11-23T11:59:04;6.70;78.40
75994;DHT22;64680;53.800;9.988;2022-11-23T12:04:25;6.80;78.30
75994;DHT22;64680;53.800;9.988;2022-11-23T12:07:08;7.00;78.20
75994;DHT22;64680;53.800;9.988;2022-11-23T12:09:42;7.10;78.30
75994;DHT22;64680;53.800;9.988;2022-11-23T12:12:15;7.20;77.40
75994;DHT22;64680;53.800;9.988;2022-11-23T12:14:42;7.20;76.80
75994;DHT22;64680;53.800;9.988;2022-11-23T12:17:39;7.20;76.60
75994;DHT22;64680;53.800;9.988;2022-11-23T12:20:20;7.20;76.50
75994;DHT22;64680;53.800;9.988;2022-11-23T12:25:50;7.20;77.90
75994;DHT22;64680;53.800;9.988;2022-11-23T12:34:05;7.30;77.90
75994;DHT22;64680;53.800;9.988;2022-11-23T12:39:38;7.30;77.90
75994;DHT22;64680;53.800;9.988;2022-11-23T12:42:16;7.30;77.90
75994;DHT22;64680;53.800;9.988;2022-11-23T12:58:51;6.90;80.10
75994;DHT22;64680;53.800;9.988;2022-11-23T13:01:23;6.80;80.00
75994;DHT22;64680;53.800;9.988;2022-11-23T13:13:14;6.90;79.40
75994;DHT22;64680;53.800;9.988;2022-11-23T13:16:13;6.90;79.70
75994;DHT22;64680;53.800;9.988;2022-11-23T13:19:11;6.90;79.50
75994;DHT22;64680;53.800;9.988;2022-11-23T13:21:41;7.00;80.00
75994;DHT22;64680;53.800;9.988;2022-11-23T13:24:31;6.90;79.20
75994;DHT22;64680;53.800;9.988;2022-11-23T13:40:39;6.80;80.90
75994;DHT22;64680;53.800;9.988;2022-11-23T13:43:21;6.80;80.80
75994;DHT22;64680;53.800;9.988;2022-11-23T13:48:45;6.80;80.60
75994;DHT22;64680;53.800;9.988;2022-11-23T13:51:11;6.80;80.80
75994;DHT22;64680;53.800;9.988;2022-11-23T13:53:41;6.80;80.80
75994;DHT22;64680;53.800;9.988;2022-11-23T13:56:29;6.80;80.90
75994;DHT22;64680;53.800;9.988;2022-11-23T14:04:29;6.80;80.90
75994;DHT22;64680;53.800;9.988;2022-11-23T14:07:02;6.80;80.60
75994;DHT22;64680;53.800;9.988;2022-11-23T14:12:16;6.80;80.70
75994;DHT22;64680;53.800;9.988;2022-11-23T14:20:09;6.80;81.00
75994;DHT22;64680;53.800;9.988;2022-11-23T14:28:06;6.70;80.90
75994;DHT22;64680;53.800;9.988;2022-11-23T14:31:00;6.70;81.30
75994;DHT22;64680;53.800;9.988;2022-11-23T14:33:39;6.60;81.40
75994;DHT22;64680;53.800;9.988;2022-11-23T14:41:42;6.50;81.60
75994;DHT22;64680;53.800;9.988;2022-11-23T14:44:12;6.50;81.50
75994;DHT22;64680;53.800;9.988;2022-11-23T14:47:04;6.40;81.80
75994;DHT22;64680;53.800;9.988;2022-11-23T14:49:30;6.40;81.80
75994;DHT22;64680;53.800;9.988;2022-11-23T14:51:56;6.40;82.20
75994;DHT22;64680;53.800;9.988;2022-11-23T14:54:23;6.40;82.20
75994;DHT22;64680;53.800;9.988;2022-11-23T14:56:52;6.30;82.20
75994;DHT22;64680;53.800;9.988;2022-11-23T14:59:20;6.40;82.00
75994;DHT22;64680;53.800;9.988;2022-11-23T15:01:53;6.40;81.80
75994;DHT22;64680;53.800;9.988;2022-11-23T15:04:26;6.30;82.00
75994;DHT22;64680;53.800;9.988;2022-11-23T15:07:15;6.20;82.10
75994;DHT22;64680;53.800;9.988;2022-11-23T15:10:01;6.20;82.10
75994;DHT22;64680;53.800;9.988;2022-11-23T15:15:21;6.00;82.80
75994;DHT22;64680;53.800;9.988;2022-11-23T15:18:01;5.80;82.70
75994;DHT22;64680;53.800;9.988;2022-11-23T15:20:30;5.70;83.10
75994;DHT22;64680;53.800;9.988;2022-11-23T15:23:02;5.70;83.40
75994;DHT22;64680;53.800;9.988;2022-11-23T15:25:27;5.60;83.20
75994;DHT22;64680;53.800;9.988;2022-11-23T15:27:54;5.50;83.20
75994;DHT22;64680;53.800;9.988;2022-11-23T15:30:26;5.50;83.30
75994;DHT22;64680;53.800;9.988;2022-11-23T15:32:59;5.30;83.30
75994;DHT22;64680;53.800;9.988;2022-11-23T15:35:36;5.20;83.60
75994;DHT22;64680;53.800;9.988;2022-11-23T15:38:06;5.10;83.90
75994;DHT22;64680;53.800;9.988;2022-11-23T15:40:36;5.00;84.10
75994;DHT22;64680;53.800;9.988;2022-11-23T15:43:02;5.00;84.30
75994;DHT22;64680;53.800;9.988;2022-11-23T15:48:16;4.80;84.70
75994;DHT22;64680;53.800;9.988;2022-11-23T15:51:00;4.70;85.10
75994;DHT22;64680;53.800;9.988;2022-11-23T15:56:32;4.70;84.90
75994;DHT22;64680;53.800;9.988;2022-11-23T15:59:03;4.60;85.10
75994;DHT22;64680;53.800;9.988;2022-11-23T16:01:30;4.60;85.00
75994;DHT22;64680;53.800;9.988;2022-11-23T16:03:57;4.60;84.80
75994;DHT22;64680;53.800;9.988;2022-11-23T16:06:45;4.50;84.90
75994;DHT22;64680;53.800;9.988;2022-11-23T16:09:34;4.40;85.10
75994;DHT22;64680;53.800;9.988;2022-11-23T16:12:01;4.30;85.30
75994;DHT22;64680;53.800;9.988;2022-11-23T16:14:28;4.30;85.60
75994;DHT22;64680;53.800;9.988;2022-11-23T16:17:15;4.20;86.00
75994;DHT22;64680;53.800;9.988;2022-11-23T16:19:46;4.20;86.00
75994;DHT22;64680;53.800;9.988;2022-11-23T16:22:22;4.20;86.00
75994;DHT22;64680;53.800;9.988;2022-11-23T16:24:50;4.10;86.00
75994;DHT22;64680;53.800;9.988;2022-11-23T16:27:22;4.10;86.00
75994;DHT22;64680;53.800;9.988;2022-11-23T16:29:49;4.00;85.90
75994;DHT22;64680;53.800;9.988;2022-11-23T16:32:33;4.00;85.90
75994;DHT22;64680;53.800;9.988;2022-11-23T16:35:16;4.00;85.70
75994;DHT22;64680;53.800;9.988;2022-11-23T16:37:43;3.90;85.80
75994;DHT22;64680;53.800;9.988;2022-11-23T16:40:09;3.80;85.90
75994;DHT22;64680;53.800;9.988;2022-11-23T16:42:35;3.80;85.90
75994;DHT22;64680;53.800;9.988;2022-11-23T16:45:01;3.80;85.90
75994;DHT22;64680;53.800;9.988;2022-11-23T16:47:27;3.70;85.90
75994;DHT22;64680;53.800;9.988;2022-11-23T16:49:54;3.80;86.50
75994;DHT22;64680;53.800;9.988;2022-11-23T16:52:21;3.70;86.50
75994;DHT22;64680;53.800;9.988;2022-11-23T16:54:48;3.70;86.80
75994;DHT22;64680;53.800;9.988;2022-11-23T16:57:22;3.80;86.90
75994;DHT22;64680;53.800;9.988;2022-11-23T16:59:48;3.80;87.00
75994;DHT22;64680;53.800;9.988;2022-11-23T17:02:15;3.80;87.00
75994;DHT22;64680;53.800;9.988;2022-11-23T17:04:42;3.90;87.10
75994;DHT22;64680;53.800;9.988;2022-11-23T17:07:07;3.90;87.00
75994;DHT22;64680;53.800;9.988;2022-11-23T17:09:33;3.90;86.90
75994;DHT22;64680;53.800;9.988;2022-11-23T17:11:59;3.90;86.50
75994;DHT22;64680;53.800;9.988;2022-11-23T17:14:25;3.90;86.10
75994;DHT22;64680;53.800;9.988;2022-11-23T17:16:50;3.80;85.90
75994;DHT22;64680;53.800;9.988;2022-11-23T17:19:19;3.70;86.10
75994;DHT22;64680;53.800;9.988;2022-11-23T17:21:45;3.70;86.20
75994;DHT22;64680;53.800;9.988;2022-11-23T17:24:11;3.60;86.40
75994;DHT22;64680;53.800;9.988;2022-11-23T17:26:40;3.60;86.60
75994;DHT22;64680;53.800;9.988;2022-11-23T17:29:09;3.50;86.90
75994;DHT22;64680;53.800;9.988;2022-11-23T17:31:36;3.50;86.80
75994;DHT22;64680;53.800;9.988;2022-11-23T17:34:02;3.60;86.90
75994;DHT22;64680;53.800;9.988;2022-11-23T17:36:28;3.50;87.00
75994;DHT22;64680;53.800;9.988;2022-11-23T17:38:55;3.60;87.00
75994;DHT22;64680;53.800;9.988;2022-11-23T17:41:20;3.50;86.90
75994;DHT22;64680;53.800;9.988;2022-11-23T17:43:46;3.50;86.90
75994;DHT22;64680;53.800;9.988;2022-11-23T17:46:20;3.40;87.00
75994;DHT22;64680;53.800;9.988;2022-11-23T17:48:50;3.40;87.20